sensor_id;sensor_type;location;lat;lon;timestamp;temperature;humidity
2957;DHT22;1488;51.548;7.222;2023-06-04T00:02:14;23.30;71.60
2957;DHT22;1488;51.548;7.222;2023-06-04T00:04:41;23.20;71.70
2957;DHT22;1488;51.548;7.222;2023-06-04T00:07:09;23.30;72.00
2957;DHT22;1488;51.548;7.222;2023-06-04T00:09:36;23.20;72.40
2957;DHT22;1488;51.548;7.222;2023-06-04T00:12:03;23.20;72.80
2957;DHT22;1488;51.548;7.222;2023-06-04T00:14:30;23.20;71.80
2957;DHT22;1488;51.548;7.222;2023-06-04T00:16:57;23.20;71.40
2957;DHT22;1488;51.548;7.222;2023-06-04T00:19:24;23.20;69.90
2957;DHT22;1488;51.548;7.222;2023-06-04T00:21:50;23.20;70.50
2957;DHT22;1488;51.548;7.222;2023-06-04T00:24:19;23.20;70.90
2957;DHT22;1488;51.548;7.222;2023-06-04T00:26:45;23.20;71.00
2957;DHT22;1488;51.548;7.222;2023-06-04T00:29:12;23.20;70.70
2957;DHT22;1488;51.548;7.222;2023-06-04T00:31:39;23.20;70.70
2957;DHT22;1488;51.548;7.222;2023-06-04T00:34:06;23.20;70.80
2957;DHT22;1488;51.548;7.222;2023-06-04T00:36:33;23.20;71.60
2957;DHT22;1488;51.548;7.222;2023-06-04T00:38:59;23.20;70.50
2957;DHT22;1488;51.548;7.222;2023-06-04T00:41:28;23.20;71.60
2957;DHT22;1488;51.548;7.222;2023-06-04T00:43:55;23.20;71.40
2957;DHT22;1488;51.548;7.222;2023-06-04T00:46:23;23.20;71.40
2957;DHT22;1488;51.548;7.222;2023-06-04T00:48:51;23.20;71.40
2957;DHT22;1488;51.548;7.222;2023-06-04T00:51:18;23.20;71.70
2957;DHT22;1488;51.548;7.222;2023-06-04T00:53:44;23.20;71.50
2957;DHT22;1488;51.548;7.222;2023-06-04T00:56:12;23.20;71.40
2957;DHT22;1488;51.548;7.222;2023-06-04T00:58:40;23.20;72.20
2957;DHT22;1488;51.548;7.222;2023-06-04T01:01:15;23.20;71.50
2957;DHT22;1488;51.548;7.222;2023-06-04T01:03:47;23.20;72.10
2957;DHT22;1488;51.548;7.222;2023-06-04T01:06:19;23.20;71.80
2957;DHT22;1488;51.548;7.222;2023-06-04T01:08:49;23.20;72.50
2957;DHT22;1488;51.548;7.222;2023-06-04T01:11:30;23.20;71.90
2957;DHT22;1488;51.548;7.222;2023-06-04T01:13:59;23.20;73.70
2957;DHT22;1488;51.548;7.222;2023-06-04T01:16:26;23.20;71.30
2957;DHT22;1488;51.548;7.222;2023-06-04T01:18:57;23.40;72.20
2957;DHT22;1488;51.548;7.222;2023-06-04T01:21:26;23.30;71.80
2957;DHT22;1488;51.548;7.222;2023-06-04T01:23:57;23.20;71.80
2957;DHT22;1488;51.548;7.222;2023-06-04T01:26:27;23.10;72.00
2957;DHT22;1488;51.548;7.222;2023-06-04T01:28:55;23.20;71.70
2957;DHT22;1488;51.548;7.222;2023-06-04T01:31:24;23.20;72.70
2957;DHT22;1488;51.548;7.222;2023-06-04T01:33:52;23.20;71.70
2957;DHT22;1488;51.548;7.222;2023-06-04T01:36:19;23.20;72.30
2957;DHT22;1488;51.548;7.222;2023-06-04T01:38:46;23.10;70.70
2957;DHT22;1488;51.548;7.222;2023-06-04T01:41:19;23.10;70.50
2957;DHT22;1488;51.548;7.222;2023-06-04T01:43:45;23.10;70.50
2957;DHT22;1488;51.548;7.222;2023-06-04T01:46:12;23.10;70.30
2957;DHT22;1488;51.548;7.222;2023-06-04T01:48:40;23.10;70.10
2957;DHT22;1488;51.548;7.222;2023-06-04T01:51:07;23.10;70.20
2957;DHT22;1488;51.548;7.222;2023-06-04T01:53:34;23.10;70.40
2957;DHT22;1488;51.548;7.222;2023-06-04T01:56:01;23.10;70.50
2957;DHT22;1488;51.548;7.222;2023-06-04T01:58:28;23.10;71.20
2957;DHT22;1488;51.548;7.222;2023-06-04T02:00:54;23.10;70.90
2957;DHT22;1488;51.548;7.222;2023-06-04T02:03:25;23.10;71.10
2957;DHT22;1488;51.548;7.222;2023-06-04T02:05:53;23.10;71.00
2957;DHT22;1488;51.548;7.222;2023-06-04T02:08:20;23.10;70.90
2957;DHT22;1488;51.548;7.222;2023-06-04T02:10:47;23.10;70.60
2957;DHT22;1488;51.548;7.222;2023-06-04T02:13:14;23.10;71.10
2957;DHT22;1488;51.548;7.222;2023-06-04T02:15:41;23.10;71.60
2957;DHT22;1488;51.548;7.222;2023-06-04T02:18:13;23.10;71.50
2957;DHT22;1488;51.548;7.222;2023-06-04T02:20:42;23.10;71.40
2957;DHT22;1488;51.548;7.222;2023-06-04T02:23:10;23.10;70.80
2957;DHT22;1488;51.548;7.222;2023-06-04T02:25:37;23.10;71.00
2957;DHT22;1488;51.548;7.222;2023-06-04T02:28:04;23.10;71.50
2957;DHT22;1488;51.548;7.222;2023-06-04T02:30:31;23.10;71.40
2957;DHT22;1488;51.548;7.222;2023-06-04T02:32:58;23.10;70.70
2957;DHT22;1488;51.548;7.222;2023-06-04T02:35:26;23.10;71.40
2957;DHT22;1488;51.548;7.222;2023-06-04T02:37:53;23.10;71.20
2957;DHT22;1488;51.548;7.222;2023-06-04T02:40:23;23.10;71.60
2957;DHT22;1488;51.548;7.222;2023-06-04T02:42:50;23.10;71.70
2957;DHT22;1488;51.548;7.222;2023-06-04T02:45:17;23.20;71.40
2957;DHT22;1488;51.548;7.222;2023-06-04T02:47:43;23.10;72.70
2957;DHT22;1488;51.548;7.222;2023-06-04T02:50:11;23.10;72.70
2957;DHT22;1488;51.548;7.222;2023-06-04T02:52:38;23.10;73.00
2957;DHT22;1488;51.548;7.222;2023-06-04T02:55:06;23.00;73.20
2957;DHT22;1488;51.548;7.222;2023-06-04T02:57:35;23.10;72.40
2957;DHT22;1488;51.548;7.222;2023-06-04T03:00:03;23.00;72.60
2957;DHT22;1488;51.548;7.222;2023-06-04T03:02:37;23.10;72.70
2957;DHT22;1488;51.548;7.222;2023-06-04T03:05:04;23.10;72.80
2957;DHT22;1488;51.548;7.222;2023-06-04T03:07:31;23.00;72.60
2957;DHT22;1488;51.548;7.222;2023-06-04T03:09:58;23.10;73.10
2957;DHT22;1488;51.548;7.222;2023-06-04T03:12:25;23.20;73.10
2957;DHT22;1488;51.548;7.222;2023-06-04T03:14:53;23.00;72.30
2957;DHT22;1488;51.548;7.222;2023-06-04T03:17:20;23.20;72.30
2957;DHT22;1488;51.548;7.222;2023-06-04T03:19:47;23.10;72.80
2957;DHT22;1488;51.548;7.222;2023-06-04T03:22:14;23.00;73.30
2957;DHT22;1488;51.548;7.222;2023-06-04T03:24:41;23.00;72.70
2957;DHT22;1488;51.548;7.222;2023-06-04T03:27:09;23.00;72.50
2957;DHT22;1488;51.548;7.222;2023-06-04T03:29:37;23.00;72.90
2957;DHT22;1488;51.548;7.222;2023-06-04T03:32:06;23.00;72.70
2957;DHT22;1488;51.548;7.222;2023-06-04T03:34:33;23.00;72.70
2957;DHT22;1488;51.548;7.222;2023-06-04T03:37:00;23.00;73.10
2957;DHT22;1488;51.548;7.222;2023-06-04T03:39:27;23.10;74.70
2957;DHT22;1488;51.548;7.222;2023-06-04T03:41:54;23.00;73.30
2957;DHT22;1488;51.548;7.222;2023-06-04T03:44:21;23.20;72.50
2957;DHT22;1488;51.548;7.222;2023-06-04T03:46:48;23.00;72.50
2957;DHT22;1488;51.548;7.222;2023-06-04T03:49:17;23.00;72.40
2957;DHT22;1488;51.548;7.222;2023-06-04T03:51:45;23.00;72.10
2957;DHT22;1488;51.548;7.222;2023-06-04T03:54:11;23.00;72.30
2957;DHT22;1488;51.548;7.222;2023-06-04T03:56:42;23.00;72.20
2957;DHT22;1488;51.548;7.222;2023-06-04T03:59:09;23.00;72.80
2957;DHT22;1488;51.548;7.222;2023-06-04T04:01:36;23.00;72.90
2957;DHT22;1488;51.548;7.222;2023-06-04T04:04:03;22.90;73.20
2957;DHT22;1488;51.548;7.222;2023-06-04T04:06:32;23.00;72.40
2957;DHT22;1488;51.548;7.222;2023-06-04T04:08:59;22.90;72.50
2957;DHT22;1488;51.548;7.222;2023-06-04T04:11:25;23.20;74.40
2957;DHT22;1488;51.548;7.222;2023-06-04T04:13:52;23.00;73.50
2957;DHT22;1488;51.548;7.222;2023-06-04T04:16:19;23.00;73.90
2957;DHT22;1488;51.548;7.222;2023-06-04T04:18:46;23.00;73.70
2957;DHT22;1488;51.548;7.222;2023-06-04T04:21:12;23.00;73.70
2957;DHT22;1488;51.548;7.222;2023-06-04T04:23:41;22.90;73.70
2957;DHT22;1488;51.548;7.222;2023-06-04T04:26:07;22.90;73.50
2957;DHT22;1488;51.548;7.222;2023-06-04T04:28:35;23.00;74.00
2957;DHT22;1488;51.548;7.222;2023-06-04T04:31:02;23.00;74.60
2957;DHT22;1488;51.548;7.222;2023-06-04T04:33:29;22.90;74.20
2957;DHT22;1488;51.548;7.222;2023-06-04T04:36:02;23.00;74.20
2957;DHT22;1488;51.548;7.222;2023-06-04T04:38:29;23.00;74.50
2957;DHT22;1488;51.548;7.222;2023-06-04T04:41:00;22.90;73.90
2957;DHT22;1488;51.548;7.222;2023-06-04T04:43:31;23.00;74.80
2957;DHT22;1488;51.548;7.222;2023-06-04T04:45:58;23.00;74.50
2957;DHT22;1488;51.548;7.222;2023-06-04T04:48:25;22.90;75.20
2957;DHT22;1488;51.548;7.222;2023-06-04T04:50:52;23.00;74.40
2957;DHT22;1488;51.548;7.222;2023-06-04T04:53:19;22.90;74.20
2957;DHT22;1488;51.548;7.222;2023-06-04T04:55:46;23.00;74.40
2957;DHT22;1488;51.548;7.222;2023-06-04T04:58:14;23.00;73.80
2957;DHT22;1488;51.548;7.222;2023-06-04T05:00:41;22.90;73.10
2957;DHT22;1488;51.548;7.222;2023-06-04T05:03:08;22.90;74.40
2957;DHT22;1488;51.548;7.222;2023-06-04T05:05:35;23.00;74.00
2957;DHT22;1488;51.548;7.222;2023-06-04T05:08:03;22.90;73.50
2957;DHT22;1488;51.548;7.222;2023-06-04T05:10:29;23.00;73.50
2957;DHT22;1488;51.548;7.222;2023-06-04T05:12:58;22.90;73.00
2957;DHT22;1488;51.548;7.222;2023-06-04T05:15:26;23.00;73.60
2957;DHT22;1488;51.548;7.222;2023-06-04T05:17:53;23.00;73.90
2957;DHT22;1488;51.548;7.222;2023-06-04T05:20:21;22.90;73.60
2957;DHT22;1488;51.548;7.222;2023-06-04T05:22:48;22.90;73.40
2957;DHT22;1488;51.548;7.222;2023-06-04T05:25:16;23.00;74.10
2957;DHT22;1488;51.548;7.222;2023-06-04T05:27:43;22.90;73.80
2957;DHT22;1488;51.548;7.222;2023-06-04T05:30:11;23.10;74.70
2957;DHT22;1488;51.548;7.222;2023-06-04T05:32:40;22.90;74.90
2957;DHT22;1488;51.548;7.222;2023-06-04T05:35:08;23.00;74.90
2957;DHT22;1488;51.548;7.222;2023-06-04T05:37:36;23.00;73.20
2957;DHT22;1488;51.548;7.222;2023-06-04T05:40:06;23.00;74.40
2957;DHT22;1488;51.548;7.222;2023-06-04T05:42:35;23.00;74.10
2957;DHT22;1488;51.548;7.222;2023-06-04T05:45:01;22.90;74.20
2957;DHT22;1488;51.548;7.222;2023-06-04T05:47:28;22.90;74.10
2957;DHT22;1488;51.548;7.222;2023-06-04T05:49:58;23.00;73.40
2957;DHT22;1488;51.548;7.222;2023-06-04T05:52:24;23.00;73.30
2957;DHT22;1488;51.548;7.222;2023-06-04T05:54:51;23.00;74.40
2957;DHT22;1488;51.548;7.222;2023-06-04T05:57:18;23.00;73.60
2957;DHT22;1488;51.548;7.222;2023-06-04T05:59:45;23.00;73.60
2957;DHT22;1488;51.548;7.222;2023-06-04T06:02:12;23.00;73.30
2957;DHT22;1488;51.548;7.222;2023-06-04T06:04:40;23.00;73.40
2957;DHT22;1488;51.548;7.222;2023-06-04T06:07:08;23.00;73.20
2957;DHT22;1488;51.548;7.222;2023-06-04T06:09:35;23.00;73.30
2957;DHT22;1488;51.548;7.222;2023-06-04T06:12:02;23.00;73.30
2957;DHT22;1488;51.548;7.222;2023-06-04T06:14:29;23.00;73.20
2957;DHT22;1488;51.548;7.222;2023-06-04T06:16:55;23.00;73.20
2957;DHT22;1488;51.548;7.222;2023-06-04T06:19:22;23.00;74.20
2957;DHT22;1488;51.548;7.222;2023-06-04T06:21:50;23.00;73.70
2957;DHT22;1488;51.548;7.222;2023-06-04T06:24:18;23.00;73.80
2957;DHT22;1488;51.548;7.222;2023-06-04T06:26:45;23.00;73.50
2957;DHT22;1488;51.548;7.222;2023-06-04T06:29:11;23.00;73.50
2957;DHT22;1488;51.548;7.222;2023-06-04T06:31:38;23.00;73.80
2957;DHT22;1488;51.548;7.222;2023-06-04T06:34:05;23.00;74.40
2957;DHT22;1488;51.548;7.222;2023-06-04T06:36:32;23.00;74.50
2957;DHT22;1488;51.548;7.222;2023-06-04T06:38:59;23.00;74.60
2957;DHT22;1488;51.548;7.222;2023-06-04T06:41:27;23.10;74.60
2957;DHT22;1488;51.548;7.222;2023-06-04T06:43:56;23.00;74.60
2957;DHT22;1488;51.548;7.222;2023-06-04T06:46:23;23.00;74.50
2957;DHT22;1488;51.548;7.222;2023-06-04T06:48:50;23.00;74.10
2957;DHT22;1488;51.548;7.222;2023-06-04T06:51:16;23.00;74.50
2957;DHT22;1488;51.548;7.222;2023-06-04T06:53:43;23.00;75.10
2957;DHT22;1488;51.548;7.222;2023-06-04T06:56:10;23.00;75.00
2957;DHT22;1488;51.548;7.222;2023-06-04T06:58:39;23.00;74.50
2957;DHT22;1488;51.548;7.222;2023-06-04T07:01:05;23.00;74.40
2957;DHT22;1488;51.548;7.222;2023-06-04T07:03:32;23.00;73.90
2957;DHT22;1488;51.548;7.222;2023-06-04T07:05:59;23.20;73.40
2957;DHT22;1488;51.548;7.222;2023-06-04T07:08:26;23.00;73.60
2957;DHT22;1488;51.548;7.222;2023-06-04T07:10:53;23.00;73.90
2957;DHT22;1488;51.548;7.222;2023-06-04T07:13:20;23.00;73.60
2957;DHT22;1488;51.548;7.222;2023-06-04T07:15:48;23.20;74.00
2957;DHT22;1488;51.548;7.222;2023-06-04T07:18:15;23.00;73.70
2957;DHT22;1488;51.548;7.222;2023-06-04T07:20:42;23.00;72.80
2957;DHT22;1488;51.548;7.222;2023-06-04T07:23:09;23.00;72.30
2957;DHT22;1488;51.548;7.222;2023-06-04T07:25:36;23.00;72.40
2957;DHT22;1488;51.548;7.222;2023-06-04T07:28:02;22.90;72.30
2957;DHT22;1488;51.548;7.222;2023-06-04T07:30:30;22.80;72.30
2957;DHT22;1488;51.548;7.222;2023-06-04T07:32:59;22.80;72.60
2957;DHT22;1488;51.548;7.222;2023-06-04T07:35:26;22.80;72.80
2957;DHT22;1488;51.548;7.222;2023-06-04T07:37:53;22.80;73.40
2957;DHT22;1488;51.548;7.222;2023-06-04T07:40:20;22.70;72.60
2957;DHT22;1488;51.548;7.222;2023-06-04T07:42:47;22.70;72.70
2957;DHT22;1488;51.548;7.222;2023-06-04T07:45:14;22.70;73.00
2957;DHT22;1488;51.548;7.222;2023-06-04T07:47:40;22.70;72.80
2957;DHT22;1488;51.548;7.222;2023-06-04T07:50:09;22.70;73.50
2957;DHT22;1488;51.548;7.222;2023-06-04T07:52:36;22.70;74.00
2957;DHT22;1488;51.548;7.222;2023-06-04T07:55:03;22.70;74.00
2957;DHT22;1488;51.548;7.222;2023-06-04T07:57:30;22.70;75.20
2957;DHT22;1488;51.548;7.222;2023-06-04T07:59:57;22.70;76.30
2957;DHT22;1488;51.548;7.222;2023-06-04T08:05:49;22.80;74.20
2957;DHT22;1488;51.548;7.222;2023-06-04T08:08:16;22.80;75.40
2957;DHT22;1488;51.548;7.222;2023-06-04T08:10:43;22.80;74.90
2957;DHT22;1488;51.548;7.222;2023-06-04T08:13:10;22.80;76.00
2957;DHT22;1488;51.548;7.222;2023-06-04T08:15:36;22.80;75.10
2957;DHT22;1488;51.548;7.222;2023-06-04T08:18:03;22.80;75.20
2957;DHT22;1488;51.548;7.222;2023-06-04T08:20:30;22.80;75.30
2957;DHT22;1488;51.548;7.222;2023-06-04T08:22:58;22.90;74.80
2957;DHT22;1488;51.548;7.222;2023-06-04T08:25:25;22.90;75.10
2957;DHT22;1488;51.548;7.222;2023-06-04T08:27:52;22.80;74.50
2957;DHT22;1488;51.548;7.222;2023-06-04T08:30:18;22.80;75.10
2957;DHT22;1488;51.548;7.222;2023-06-04T08:32:45;22.80;74.40
2957;DHT22;1488;51.548;7.222;2023-06-04T08:35:12;22.90;74.60
2957;DHT22;1488;51.548;7.222;2023-06-04T08:37:40;22.90;74.70
2957;DHT22;1488;51.548;7.222;2023-06-04T08:40:09;22.90;75.00
2957;DHT22;1488;51.548;7.222;2023-06-04T08:42:40;22.90;74.50
2957;DHT22;1488;51.548;7.222;2023-06-04T08:45:10;22.80;74.50
2957;DHT22;1488;51.548;7.222;2023-06-04T08:47:40;22.80;75.20
2957;DHT22;1488;51.548;7.222;2023-06-04T08:50:10;22.80;74.70
2957;DHT22;1488;51.548;7.222;2023-06-04T08:52:38;22.80;75.20
2957;DHT22;1488;51.548;7.222;2023-06-04T08:55:05;22.80;74.50
2957;DHT22;1488;51.548;7.222;2023-06-04T08:57:34;22.80;75.00
2957;DHT22;1488;51.548;7.222;2023-06-04T09:00:02;22.80;74.80
2957;DHT22;1488;51.548;7.222;2023-06-04T09:02:30;22.80;75.30
2957;DHT22;1488;51.548;7.222;2023-06-04T09:04:57;22.80;76.00
2957;DHT22;1488;51.548;7.222;2023-06-04T09:07:25;22.80;75.70
2957;DHT22;1488;51.548;7.222;2023-06-04T09:09:51;22.80;75.90
2957;DHT22;1488;51.548;7.222;2023-06-04T09:12:23;22.80;75.50
2957;DHT22;1488;51.548;7.222;2023-06-04T09:14:51;22.80;77.10
2957;DHT22;1488;51.548;7.222;2023-06-04T09:17:21;22.80;76.50
2957;DHT22;1488;51.548;7.222;2023-06-04T09:19:48;22.80;76.80
2957;DHT22;1488;51.548;7.222;2023-06-04T09:22:15;22.80;77.10
2957;DHT22;1488;51.548;7.222;2023-06-04T09:24:43;22.80;75.40
2957;DHT22;1488;51.548;7.222;2023-06-04T09:27:13;22.90;76.60
2957;DHT22;1488;51.548;7.222;2023-06-04T09:29:40;22.90;75.40
2957;DHT22;1488;51.548;7.222;2023-06-04T09:32:08;22.90;75.10
2957;DHT22;1488;51.548;7.222;2023-06-04T09:34:35;22.90;75.00
2957;DHT22;1488;51.548;7.222;2023-06-04T09:37:02;23.10;75.10
2957;DHT22;1488;51.548;7.222;2023-06-04T09:39:29;22.90;75.10
2957;DHT22;1488;51.548;7.222;2023-06-04T09:42:00;23.00;74.40
2957;DHT22;1488;51.548;7.222;2023-06-04T09:44:27;23.10;74.10
2957;DHT22;1488;51.548;7.222;2023-06-04T09:46:54;23.00;74.00
2957;DHT22;1488;51.548;7.222;2023-06-04T09:49:23;23.00;74.00
2957;DHT22;1488;51.548;7.222;2023-06-04T09:51:50;23.00;74.80
2957;DHT22;1488;51.548;7.222;2023-06-04T09:54:17;23.00;74.80
2957;DHT22;1488;51.548;7.222;2023-06-04T09:56:44;23.00;75.00
2957;DHT22;1488;51.548;7.222;2023-06-04T09:59:13;23.00;75.30
2957;DHT22;1488;51.548;7.222;2023-06-04T10:01:40;23.00;74.50
2957;DHT22;1488;51.548;7.222;2023-06-04T10:04:09;23.00;74.60
2957;DHT22;1488;51.548;7.222;2023-06-04T10:06:39;23.00;74.40
2957;DHT22;1488;51.548;7.222;2023-06-04T10:09:06;23.00;74.80
2957;DHT22;1488;51.548;7.222;2023-06-04T10:11:35;23.10;74.20
2957;DHT22;1488;51.548;7.222;2023-06-04T10:14:06;23.00;74.70
2957;DHT22;1488;51.548;7.222;2023-06-04T10:16:36;23.00;74.70
2957;DHT22;1488;51.548;7.222;2023-06-04T10:19:04;23.00;74.70
2957;DHT22;1488;51.548;7.222;2023-06-04T10:21:33;23.00;74.80
2957;DHT22;1488;51.548;7.222;2023-06-04T10:24:03;23.00;75.10
2957;DHT22;1488;51.548;7.222;2023-06-04T10:26:33;23.00;75.30
2957;DHT22;1488;51.548;7.222;2023-06-04T10:29:01;23.00;75.10
2957;DHT22;1488;51.548;7.222;2023-06-04T10:31:28;23.00;75.40
2957;DHT22;1488;51.548;7.222;2023-06-04T10:33:55;23.00;74.80
2957;DHT22;1488;51.548;7.222;2023-06-04T10:36:23;23.00;75.00
2957;DHT22;1488;51.548;7.222;2023-06-04T10:38:52;23.00;75.50
2957;DHT22;1488;51.548;7.222;2023-06-04T10:41:21;23.00;74.40
2957;DHT22;1488;51.548;7.222;2023-06-04T10:43:48;23.00;74.90
2957;DHT22;1488;51.548;7.222;2023-06-04T10:46:17;23.00;74.10
2957;DHT22;1488;51.548;7.222;2023-06-04T10:48:48;23.00;75.30
2957;DHT22;1488;51.548;7.222;2023-06-04T10:51:15;23.10;76.00
2957;DHT22;1488;51.548;7.222;2023-06-04T10:53:42;23.00;75.50
2957;DHT22;1488;51.548;7.222;2023-06-04T10:56:09;23.00;75.00
2957;DHT22;1488;51.548;7.222;2023-06-04T10:58:37;23.10;75.40
2957;DHT22;1488;51.548;7.222;2023-06-04T11:01:04;23.10;75.00
2957;DHT22;1488;51.548;7.222;2023-06-04T11:03:37;23.00;74.30
2957;DHT22;1488;51.548;7.222;2023-06-04T11:06:15;23.00;74.50
2957;DHT22;1488;51.548;7.222;2023-06-04T11:08:43;23.00;74.80
2957;DHT22;1488;51.548;7.222;2023-06-04T11:11:14;23.00;74.90
2957;DHT22;1488;51.548;7.222;2023-06-04T11:13:42;23.20;75.00
2957;DHT22;1488;51.548;7.222;2023-06-04T11:16:16;23.00;73.60
2957;DHT22;1488;51.548;7.222;2023-06-04T11:18:43;23.10;74.10
2957;DHT22;1488;51.548;7.222;2023-06-04T11:21:11;23.10;74.00
2957;DHT22;1488;51.548;7.222;2023-06-04T11:23:40;23.10;75.00
2957;DHT22;1488;51.548;7.222;2023-06-04T11:26:07;23.10;73.80
2957;DHT22;1488;51.548;7.222;2023-06-04T11:28:34;23.10;73.80
2957;DHT22;1488;51.548;7.222;2023-06-04T11:31:03;23.10;74.00
2957;DHT22;1488;51.548;7.222;2023-06-04T11:33:41;23.10;73.40
2957;DHT22;1488;51.548;7.222;2023-06-04T11:36:09;23.10;73.80
2957;DHT22;1488;51.548;7.222;2023-06-04T11:38:36;23.10;73.00
2957;DHT22;1488;51.548;7.222;2023-06-04T11:41:03;23.20;73.30
2957;DHT22;1488;51.548;7.222;2023-06-04T11:43:32;23.10;74.00
2957;DHT22;1488;51.548;7.222;2023-06-04T11:46:06;23.10;73.80
2957;DHT22;1488;51.548;7.222;2023-06-04T11:48:33;23.10;73.90
2957;DHT22;1488;51.548;7.222;2023-06-04T11:51:06;23.10;74.40
2957;DHT22;1488;51.548;7.222;2023-06-04T11:53:33;23.10;75.50
2957;DHT22;1488;51.548;7.222;2023-06-04T11:56:00;23.10;74.30
2957;DHT22;1488;51.548;7.222;2023-06-04T11:58:27;23.10;74.20
2957;DHT22;1488;51.548;7.222;2023-06-04T12:00:55;23.10;74.20
2957;DHT22;1488;51.548;7.222;2023-06-04T12:03:35;23.10;73.50
2957;DHT22;1488;51.548;7.222;2023-06-04T12:06:13;23.10;73.80
2957;DHT22;1488;51.548;7.222;2023-06-04T12:08:48;23.10;75.40
2957;DHT22;1488;51.548;7.222;2023-06-04T12:11:26;23.10;74.30
2957;DHT22;1488;51.548;7.222;2023-06-04T12:13:54;23.10;75.80
2957;DHT22;1488;51.548;7.222;2023-06-04T12:16:21;23.10;75.40
2957;DHT22;1488;51.548;7.222;2023-06-04T12:18:49;23.10;75.60
2957;DHT22;1488;51.548;7.222;2023-06-04T12:21:25;23.10;76.20
2957;DHT22;1488;51.548;7.222;2023-06-04T12:23:54;23.10;75.10
2957;DHT22;1488;51.548;7.222;2023-06-04T12:26:22;23.10;75.60
2957;DHT22;1488;51.548;7.222;2023-06-04T12:28:59;23.10;76.60
2957;DHT22;1488;51.548;7.222;2023-06-04T12:31:26;23.10;74.00
2957;DHT22;1488;51.548;7.222;2023-06-04T12:34:00;23.10;75.10
2957;DHT22;1488;51.548;7.222;2023-06-04T12:36:27;23.10;75.30
2957;DHT22;1488;51.548;7.222;2023-06-04T12:38:58;23.10;75.20
2957;DHT22;1488;51.548;7.222;2023-06-04T12:41:25;23.20;74.50
2957;DHT22;1488;51.548;7.222;2023-06-04T12:43:52;23.30;74.60
2957;DHT22;1488;51.548;7.222;2023-06-04T12:46:19;23.10;74.50
2957;DHT22;1488;51.548;7.222;2023-06-04T12:48:47;23.10;74.50
2957;DHT22;1488;51.548;7.222;2023-06-04T12:51:15;23.10;74.80
2957;DHT22;1488;51.548;7.222;2023-06-04T12:53:42;23.10;75.00
2957;DHT22;1488;51.548;7.222;2023-06-04T12:56:10;23.10;75.10
2957;DHT22;1488;51.548;7.222;2023-06-04T12:58:37;23.10;75.80
2957;DHT22;1488;51.548;7.222;2023-06-04T13:01:04;23.20;75.20
2957;DHT22;1488;51.548;7.222;2023-06-04T13:03:31;23.10;75.10
2957;DHT22;1488;51.548;7.222;2023-06-04T13:05:58;23.10;74.50
2957;DHT22;1488;51.548;7.222;2023-06-04T13:08:26;23.10;73.70
2957;DHT22;1488;51.548;7.222;2023-06-04T13:10:53;23.10;74.30
2957;DHT22;1488;51.548;7.222;2023-06-04T13:13:20;23.20;75.10
2957;DHT22;1488;51.548;7.222;2023-06-04T13:15:47;23.20;74.60
2957;DHT22;1488;51.548;7.222;2023-06-04T13:18:14;23.10;74.30
2957;DHT22;1488;51.548;7.222;2023-06-04T13:20:41;23.10;74.70
2957;DHT22;1488;51.548;7.222;2023-06-04T13:23:08;23.20;75.30
2957;DHT22;1488;51.548;7.222;2023-06-04T13:25:39;23.20;75.30
2957;DHT22;1488;51.548;7.222;2023-06-04T13:28:06;23.20;75.40
2957;DHT22;1488;51.548;7.222;2023-06-04T13:30:34;23.20;75.60
2957;DHT22;1488;51.548;7.222;2023-06-04T13:33:01;23.20;74.40
2957;DHT22;1488;51.548;7.222;2023-06-04T13:35:28;23.20;75.60
2957;DHT22;1488;51.548;7.222;2023-06-04T13:37:55;23.20;74.80
2957;DHT22;1488;51.548;7.222;2023-06-04T13:40:22;23.20;75.20
2957;DHT22;1488;51.548;7.222;2023-06-04T13:42:50;23.20;75.20
2957;DHT22;1488;51.548;7.222;2023-06-04T13:45:17;23.20;75.10
2957;DHT22;1488;51.548;7.222;2023-06-04T13:47:45;23.20;75.30
2957;DHT22;1488;51.548;7.222;2023-06-04T13:50:12;23.20;75.20
2957;DHT22;1488;51.548;7.222;2023-06-04T13:52:39;23.20;75.40
2957;DHT22;1488;51.548;7.222;2023-06-04T13:55:06;23.20;75.00
2957;DHT22;1488;51.548;7.222;2023-06-04T13:57:33;23.20;76.90
2957;DHT22;1488;51.548;7.222;2023-06-04T14:00:02;23.20;77.00
2957;DHT22;1488;51.548;7.222;2023-06-04T14:02:30;23.20;75.80
2957;DHT22;1488;51.548;7.222;2023-06-04T14:04:56;23.20;75.20
2957;DHT22;1488;51.548;7.222;2023-06-04T14:07:23;23.20;75.20
2957;DHT22;1488;51.548;7.222;2023-06-04T14:09:50;23.20;74.90
2957;DHT22;1488;51.548;7.222;2023-06-04T14:12:20;23.20;74.90
2957;DHT22;1488;51.548;7.222;2023-06-04T14:14:47;23.20;75.10
2957;DHT22;1488;51.548;7.222;2023-06-04T14:17:15;23.20;74.80
2957;DHT22;1488;51.548;7.222;2023-06-04T14:19:42;23.20;74.90
2957;DHT22;1488;51.548;7.222;2023-06-04T14:22:10;23.20;75.30
2957;DHT22;1488;51.548;7.222;2023-06-04T14:24:37;23.20;75.20
2957;DHT22;1488;51.548;7.222;2023-06-04T14:27:04;23.20;75.40
2957;DHT22;1488;51.548;7.222;2023-06-04T14:29:32;23.20;75.40
2957;DHT22;1488;51.548;7.222;2023-06-04T14:31:59;23.20;75.40
2957;DHT22;1488;51.548;7.222;2023-06-04T14:34:27;23.20;75.20
2957;DHT22;1488;51.548;7.222;2023-06-04T14:36:53;23.20;75.30
2957;DHT22;1488;51.548;7.222;2023-06-04T14:39:20;23.20;75.20
2957;DHT22;1488;51.548;7.222;2023-06-04T14:41:47;23.20;75.20
2957;DHT22;1488;51.548;7.222;2023-06-04T14:44:14;23.20;75.10
2957;DHT22;1488;51.548;7.222;2023-06-04T14:46:41;23.20;75.20
2957;DHT22;1488;51.548;7.222;2023-06-04T14:49:08;23.20;75.00
2957;DHT22;1488;51.548;7.222;2023-06-04T14:51:36;23.20;75.20
2957;DHT22;1488;51.548;7.222;2023-06-04T14:54:03;23.20;75.40
2957;DHT22;1488;51.548;7.222;2023-06-04T14:56:30;23.20;75.20
2957;DHT22;1488;51.548;7.222;2023-06-04T14:58:58;23.20;75.60
2957;DHT22;1488;51.548;7.222;2023-06-04T15:01:26;23.20;75.90
2957;DHT22;1488;51.548;7.222;2023-06-04T15:03:53;23.20;75.10
2957;DHT22;1488;51.548;7.222;2023-06-04T15:06:19;23.20;75.20
2957;DHT22;1488;51.548;7.222;2023-06-04T15:08:47;23.20;74.60
2957;DHT22;1488;51.548;7.222;2023-06-04T15:11:14;23.20;75.10
2957;DHT22;1488;51.548;7.222;2023-06-04T15:13:41;23.20;74.90
2957;DHT22;1488;51.548;7.222;2023-06-04T15:16:08;23.20;74.70
2957;DHT22;1488;51.548;7.222;2023-06-04T15:18:35;23.20;74.40
2957;DHT22;1488;51.548;7.222;2023-06-04T15:21:02;23.20;74.00
2957;DHT22;1488;51.548;7.222;2023-06-04T15:23:29;23.20;74.10
2957;DHT22;1488;51.548;7.222;2023-06-04T15:25:57;23.20;74.20
2957;DHT22;1488;51.548;7.222;2023-06-04T15:28:24;23.20;73.80
2957;DHT22;1488;51.548;7.222;2023-06-04T15:30:50;23.20;73.70
2957;DHT22;1488;51.548;7.222;2023-06-04T15:33:17;23.20;73.60
2957;DHT22;1488;51.548;7.222;2023-06-04T15:35:44;23.20;74.10
2957;DHT22;1488;51.548;7.222;2023-06-04T15:38:10;23.20;74.30
2957;DHT22;1488;51.548;7.222;2023-06-04T15:40:37;23.20;74.90
2957;DHT22;1488;51.548;7.222;2023-06-04T15:43:06;23.20;75.60
2957;DHT22;1488;51.548;7.222;2023-06-04T15:45:33;23.20;75.00
2957;DHT22;1488;51.548;7.222;2023-06-04T15:47:59;23.20;75.80
2957;DHT22;1488;51.548;7.222;2023-06-04T15:50:26;23.40;74.90
2957;DHT22;1488;51.548;7.222;2023-06-04T15:52:53;23.20;74.90
2957;DHT22;1488;51.548;7.222;2023-06-04T15:55:20;23.30;75.10
2957;DHT22;1488;51.548;7.222;2023-06-04T15:57:46;23.20;74.80
2957;DHT22;1488;51.548;7.222;2023-06-04T16:00:15;23.30;75.90
2957;DHT22;1488;51.548;7.222;2023-06-04T16:02:41;23.20;75.20
2957;DHT22;1488;51.548;7.222;2023-06-04T16:05:08;23.30;75.00
2957;DHT22;1488;51.548;7.222;2023-06-04T16:07:35;23.20;74.80
2957;DHT22;1488;51.548;7.222;2023-06-04T16:10:02;23.30;75.40